Time;durP1;ratioP1;P1;durP2;ratioP2;P2;SDS_P1;SDS_P2;PMS_P1;PMS_P2;Temp;Humidity;BMP_temperature;BMP_pressure;BME280_temperature;BME280_humidity;BME280_pressure;Samples;Min_cycle;Max_cycle;Signal;HPM_P1;HPM_P2
2022/07/11 00:01:37;;;;;;;7.13;3.33;;;15.80;99.90;;;;;;5052139;28;20056;-75
2022/07/11 00:04:03;;;;;;;5.45;2.60;;;15.50;99.90;;;;;;5053325;28;20098;-75
2022/07/11 00:06:29;;;;;;;4.85;2.42;;;15.50;99.90;;;;;;5051490;28;20053;-76
2022/07/11 00:08:54;;;;;;;10.45;2.50;;;15.50;99.90;;;;;;5051674;28;20049;-76
2022/07/11 00:11:20;;;;;;;10.15;3.00;;;15.50;99.90;;;;;;5052519;28;20049;-73
2022/07/11 00:13:46;;;;;;;8.80;3.35;;;15.50;99.90;;;;;;5052629;28;20124;-74
2022/07/11 00:16:12;;;;;;;7.85;2.80;;;15.40;99.90;;;;;;5052652;28;20483;-75
2022/07/11 00:18:38;;;;;;;8.07;2.83;;;15.40;99.90;;;;;;5052582;28;20060;-76
2022/07/11 00:21:04;;;;;;;7.43;3.17;;;15.40;99.90;;;;;;5051365;28;20075;-74
2022/07/11 00:23:30;;;;;;;9.85;3.33;;;15.40;99.90;;;;;;5052825;28;20122;-76
2022/07/11 00:25:55;;;;;;;9.07;3.30;;;15.30;99.90;;;;;;5052702;28;20053;-76
2022/07/11 00:28:21;;;;;;;8.73;3.78;;;15.30;99.90;;;;;;5052491;28;20033;-76
2022/07/11 00:30:47;;;;;;;9.95;3.35;;;15.40;99.90;;;;;;5052369;28;20101;-76
2022/07/11 00:33:12;;;;;;;7.57;3.40;;;15.30;99.90;;;;;;5032989;28;20049;-76
2022/07/11 00:35:38;;;;;;;7.95;3.60;;;15.30;99.90;;;;;;5052291;28;20396;-76
2022/07/11 00:38:03;;;;;;;6.28;3.05;;;15.30;99.90;;;;;;5052498;28;20045;-78
2022/07/11 00:40:29;;;;;;;8.52;3.30;;;15.30;99.90;;;;;;5052293;28;20049;-76
2022/07/11 00:42:55;;;;;;;8.45;3.45;;;15.30;99.90;;;;;;5050378;28;20045;-76
2022/07/11 00:45:21;;;;;;;9.95;4.07;;;15.30;99.90;;;;;;5051878;28;20041;-76
2022/07/11 00:47:46;;;;;;;10.20;3.88;;;15.30;99.90;;;;;;5052048;28;20391;-76
2022/07/11 00:50:13;;;;;;;13.23;4.80;;;15.40;99.90;;;;;;5034301;28;20076;-76
2022/07/11 00:52:40;;;;;;;7.53;3.90;;;15.30;99.90;;;;;;5052046;28;20052;-76
2022/07/11 00:55:08;;;;;;;10.45;3.80;;;15.30;99.90;;;;;;5051532;28;20060;-74
2022/07/11 00:57:35;;;;;;;9.48;4.25;;;15.20;99.90;;;;;;5050983;28;20064;-76
2022/07/11 01:00:01;;;;;;;8.90;3.33;;;15.30;99.90;;;;;;5050440;28;20056;-75
2022/07/11 01:02:27;;;;;;;9.60;3.83;;;15.20;99.90;;;;;;5050513;28;20049;-75
2022/07/11 01:04:53;;;;;;;10.45;3.70;;;15.50;99.90;;;;;;5059016;28;20044;-74
2022/07/11 01:07:18;;;;;;;9.05;4.20;;;15.20;99.90;;;;;;5072014;28;20430;-75
2022/07/11 01:09:44;;;;;;;7.90;4.25;;;15.20;99.90;;;;;;5063803;28;20037;-76
2022/07/11 01:12:10;;;;;;;12.43;4.90;;;15.20;99.90;;;;;;5051688;28;20060;-74
2022/07/11 01:14:35;;;;;;;9.73;4.35;;;15.20;99.90;;;;;;5051401;28;20045;-74
2022/07/11 01:17:01;;;;;;;9.45;4.60;;;15.20;99.90;;;;;;5050624;28;20054;-75
2022/07/11 01:19:26;;;;;;;13.95;4.07;;;15.20;99.90;;;;;;5051571;28;20411;-75
2022/07/11 01:21:57;;;;;;;7.38;4.05;;;15.20;99.90;;;;;;5050317;28;20446;-74
2022/07/11 01:24:22;;;;;;;9.55;5.10;;;15.20;99.90;;;;;;5051469;28;20041;-74
2022/07/11 01:26:48;;;;;;;8.38;4.32;;;15.20;99.90;;;;;;5049544;28;20502;-72
2022/07/11 01:29:14;;;;;;;8.13;3.83;;;15.30;99.90;;;;;;5051369;28;20507;-73
2022/07/11 01:31:41;;;;;;;11.10;4.20;;;15.20;99.90;;;;;;5051235;28;20041;-75
2022/07/11 01:34:07;;;;;;;9.40;4.40;;;15.20;99.90;;;;;;5050926;28;20049;-75
2022/07/11 01:36:33;;;;;;;10.13;4.75;;;15.20;99.90;;;;;;5051051;28;20087;-74
2022/07/11 01:38:59;;;;;;;11.52;4.35;;;15.20;99.90;;;;;;5033346;28;20045;-75
2022/07/11 01:41:24;;;;;;;10.50;4.55;;;15.30;99.90;;;;;;5050023;28;20106;-74
2022/07/11 01:43:50;;;;;;;12.00;4.00;;;15.40;99.90;;;;;;5050712;28;20037;-74
2022/07/11 01:46:17;;;;;;;9.73;3.83;;;15.20;99.90;;;;;;5049721;28;20056;-73
2022/07/11 01:48:43;;;;;;;9.90;4.55;;;15.30;99.90;;;;;;5049615;28;20571;-76
2022/07/11 01:51:09;;;;;;;7.32;4.10;;;15.20;99.90;;;;;;5049122;28;20131;-74
2022/07/11 01:53:35;;;;;;;9.50;3.95;;;15.40;99.90;;;;;;5049469;28;20049;-75
2022/07/11 01:56:01;;;;;;;12.57;3.97;;;15.20;99.90;;;;;;5050881;28;20127;-74
2022/07/11 01:58:27;;;;;;;7.30;3.55;;;15.20;99.90;;;;;;5050749;28;20049;-73
2022/07/11 02:00:52;;;;;;;11.05;3.90;;;15.10;99.90;;;;;;5051030;28;20052;-75
2022/07/11 02:03:18;;;;;;;10.52;4.45;;;15.20;99.90;;;;;;5055406;28;20403;-74
2022/07/11 02:05:43;;;;;;;12.88;4.10;;;15.20;99.90;;;;;;5050232;28;20087;-75
2022/07/11 02:08:13;;;;;;;9.43;4.40;;;15.20;99.90;;;;;;5049962;28;20132;-74
2022/07/11 02:10:45;;;;;;;10.27;4.22;;;15.20;99.90;;;;;;5049334;28;20048;-76
2022/07/11 02:13:12;;;;;;;13.85;4.07;;;15.20;99.90;;;;;;5050217;28;20060;-74
2022/07/11 02:15:39;;;;;;;14.75;4.43;;;15.20;99.90;;;;;;5050278;28;20129;-74
2022/07/11 02:18:05;;;;;;;12.18;4.40;;;15.30;99.90;;;;;;5050517;28;20049;-74
2022/07/11 02:20:30;;;;;;;10.95;4.28;;;15.20;99.90;;;;;;5050270;28;20045;-75
2022/07/11 02:22:58;;;;;;;8.45;4.57;;;15.20;99.90;;;;;;5059079;28;20593;-74
2022/07/11 02:25:24;;;;;;;16.42;4.80;;;15.10;99.90;;;;;;5069963;28;20059;-75
2022/07/11 02:27:51;;;;;;;14.82;3.90;;;15.10;99.90;;;;;;5070266;28;20048;-75
2022/07/11 02:30:16;;;;;;;11.10;4.65;;;15.20;99.90;;;;;;5073814;28;20041;-74
2022/07/11 02:32:42;;;;;;;11.52;4.60;;;15.10;99.90;;;;;;5053613;28;20049;-75
2022/07/11 02:35:09;;;;;;;12.77;4.55;;;15.10;99.90;;;;;;5067390;28;20073;-75
2022/07/11 02:37:35;;;;;;;12.95;4.28;;;15.10;99.90;;;;;;5067166;28;20072;-75
2022/07/11 02:40:01;;;;;;;12.57;4.53;;;15.10;99.90;;;;;;5070112;28;20057;-75
2022/07/11 02:42:26;;;;;;;17.67;4.80;;;15.20;99.90;;;;;;5068858;28;20487;-74
2022/07/11 02:44:52;;;;;;;12.27;4.38;;;15.10;99.90;;;;;;5051215;28;20094;-74
2022/07/11 02:47:17;;;;;;;13.00;4.47;;;15.10;99.90;;;;;;5049916;28;20048;-74
2022/07/11 02:49:43;;;;;;;12.77;4.82;;;15.10;99.90;;;;;;5049689;28;20036;-74
2022/07/11 02:52:09;;;;;;;12.20;4.78;;;15.20;99.90;;;;;;5049625;28;20053;-75
2022/07/11 02:54:35;;;;;;;11.68;4.95;;;15.10;99.90;;;;;;5051159;28;20113;-74
2022/07/11 02:57:00;;;;;;;17.40;4.50;;;15.20;99.90;;;;;;5050016;28;20221;-75
2022/07/11 02:59:26;;;;;;;10.55;4.70;;;15.10;99.90;;;;;;5031662;28;20384;-74
2022/07/11 03:01:52;;;;;;;14.93;4.72;;;15.20;99.90;;;;;;5050046;28;20092;-75
2022/07/11 03:04:18;;;;;;;19.88;4.60;;;15.10;99.90;;;;;;5049339;28;20056;-72
2022/07/11 03:06:43;;;;;;;12.32;4.30;;;15.20;99.90;;;;;;5069537;28;20040;-75
2022/07/11 03:09:09;;;;;;;10.88;4.45;;;15.30;99.90;;;;;;5050772;28;20045;-75
2022/07/11 03:11:35;;;;;;;14.32;3.97;;;15.10;99.90;;;;;;5048697;28;20049;-74
2022/07/11 03:14:01;;;;;;;12.20;4.47;;;15.10;99.90;;;;;;5050271;28;20091;-75
2022/07/11 03:16:28;;;;;;;9.77;4.20;;;15.10;99.90;;;;;;5051516;28;20037;-74
2022/07/11 03:18:54;;;;;;;12.70;4.20;;;15.30;99.90;;;;;;5051025;28;20059;-75
2022/07/11 03:21:20;;;;;;;14.50;4.30;;;15.10;99.90;;;;;;5054486;28;20040;-74
2022/07/11 03:23:46;;;;;;;11.02;4.40;;;15.30;99.90;;;;;;5055985;28;20047;-76
2022/07/11 03:26:11;;;;;;;12.43;4.05;;;15.30;99.90;;;;;;5053234;28;20048;-75
2022/07/11 03:28:37;;;;;;;12.02;3.47;;;15.40;99.90;;;;;;5053845;28;20041;-74
2022/07/11 03:31:03;;;;;;;9.57;3.10;;;15.20;99.90;;;;;;5053582;28;20037;-75
2022/07/11 03:33:29;;;;;;;11.55;2.90;;;15.10;99.90;;;;;;5053198;28;20044;-75
2022/07/11 03:35:55;;;;;;;14.00;3.22;;;15.40;99.90;;;;;;5055486;28;20503;-75
2022/07/11 03:38:21;;;;;;;18.20;3.58;;;15.20;99.90;;;;;;5073415;28;20036;-74
2022/07/11 03:40:47;;;;;;;7.93;3.08;;;15.30;99.90;;;;;;5072590;28;20121;-75
2022/07/11 03:43:13;;;;;;;9.75;3.55;;;15.10;99.90;;;;;;5073727;28;20029;-76
2022/07/11 03:45:39;;;;;;;10.40;3.35;;;15.10;99.90;;;;;;5072948;28;20632;-75
2022/07/11 03:48:06;;;;;;;8.00;3.30;;;15.20;99.90;;;;;;5070189;28;20060;-75
2022/07/11 03:50:31;;;;;;;5.65;2.95;;;15.20;99.90;;;;;;5073192;28;20044;-76
2022/07/11 03:52:58;;;;;;;9.50;2.90;;;15.20;99.90;;;;;;5067342;28;20457;-76
2022/07/11 03:55:24;;;;;;;12.23;3.05;;;15.20;99.90;;;;;;5053253;28;20041;-75
2022/07/11 03:57:50;;;;;;;7.20;3.17;;;15.20;99.90;;;;;;5054150;28;20459;-75
2022/07/11 04:00:16;;;;;;;7.60;3.33;;;15.20;99.90;;;;;;5052648;28;20049;-75
2022/07/11 04:02:42;;;;;;;9.10;2.65;;;15.40;99.90;;;;;;5052815;28;20411;-78
2022/07/11 04:05:08;;;;;;;10.13;3.17;;;15.20;99.90;;;;;;5052983;28;20049;-76
2022/07/11 04:07:34;;;;;;;11.10;2.78;;;15.20;99.90;;;;;;5053774;28;20114;-76
2022/07/11 04:09:59;;;;;;;8.50;2.22;;;15.20;99.90;;;;;;5051415;28;20041;-75
2022/07/11 04:12:25;;;;;;;5.30;2.25;;;15.30;99.90;;;;;;5052823;28;20106;-77
2022/07/11 04:14:51;;;;;;;8.55;2.55;;;15.20;99.90;;;;;;5052617;28;20077;-74
2022/07/11 04:17:16;;;;;;;11.43;2.22;;;15.30;99.90;;;;;;5052593;28;20049;-76
2022/07/11 04:19:45;;;;;;;7.00;2.33;;;15.30;99.90;;;;;;5063905;28;20063;-75
2022/07/11 04:22:11;;;;;;;5.68;2.22;;;15.20;99.90;;;;;;5052856;28;20037;-74
2022/07/11 04:24:37;;;;;;;9.32;2.50;;;15.20;99.90;;;;;;5052384;28;20483;-76
2022/07/11 04:27:03;;;;;;;10.02;2.20;;;15.40;99.90;;;;;;5052524;28;20090;-76
2022/07/11 04:29:29;;;;;;;6.63;2.00;;;15.30;99.90;;;;;;5057333;28;20067;-76
2022/07/11 04:31:55;;;;;;;6.57;2.10;;;15.50;99.90;;;;;;5072254;28;20053;-76
2022/07/11 04:34:20;;;;;;;7.50;2.40;;;15.30;99.90;;;;;;5072402;28;20052;-75
2022/07/11 04:36:46;;;;;;;7.00;2.55;;;15.30;99.90;;;;;;5067734;28;20049;-76
2022/07/11 04:39:12;;;;;;;8.63;2.00;;;15.50;99.90;;;;;;5052697;28;20139;-76
2022/07/11 04:41:38;;;;;;;9.95;1.98;;;15.30;99.90;;;;;;5052736;28;20036;-76
2022/07/11 04:44:04;;;;;;;4.20;1.77;;;15.30;99.90;;;;;;5052623;28;20045;-76
2022/07/11 04:46:31;;;;;;;5.82;1.63;;;15.30;99.90;;;;;;5052109;28;20037;-76
2022/07/11 04:48:57;;;;;;;7.15;1.92;;;15.60;99.90;;;;;;5052264;28;20041;-76
2022/07/11 04:51:24;;;;;;;7.40;1.58;;;15.40;99.90;;;;;;5051784;28;20586;-75
2022/07/11 04:53:50;;;;;;;9.02;1.92;;;15.40;99.90;;;;;;5051863;28;20048;-76
2022/07/11 04:56:16;;;;;;;5.30;2.05;;;15.40;99.90;;;;;;5051968;28;20067;-76
2022/07/11 04:58:42;;;;;;;8.63;1.30;;;15.40;99.90;;;;;;5050699;28;20411;-76
2022/07/11 05:01:08;;;;;;;13.00;2.63;;;15.50;99.90;;;;;;5052654;28;20049;-75
2022/07/11 05:03:34;;;;;;;3.47;1.27;;;15.40;99.90;;;;;;5051886;28;20084;-76
2022/07/11 05:06:00;;;;;;;5.47;1.80;;;15.40;99.90;;;;;;5050344;28;20049;-77
2022/07/11 05:08:25;;;;;;;6.40;1.67;;;15.50;99.90;;;;;;5051642;28;20044;-75
2022/07/11 05:10:51;;;;;;;8.40;1.85;;;15.50;99.90;;;;;;5051323;28;20098;-76
2022/07/11 05:13:16;;;;;;;4.50;1.70;;;15.50;99.90;;;;;;5051401;28;20059;-76
2022/07/11 05:15:44;;;;;;;5.38;1.50;;;15.50;99.90;;;;;;5051378;28;20053;-74
2022/07/11 05:18:09;;;;;;;7.18;1.85;;;15.50;99.90;;;;;;5051585;28;20037;-76
2022/07/11 05:20:35;;;;;;;3.65;1.60;;;15.50;99.90;;;;;;5051166;28;20072;-76
2022/07/11 05:23:01;;;;;;;6.22;1.50;;;15.50;99.90;;;;;;5051751;28;20037;-77
2022/07/11 05:25:26;;;;;;;5.30;1.40;;;15.50;99.90;;;;;;5032858;28;20408;-76
2022/07/11 05:27:52;;;;;;;9.65;1.40;;;15.50;99.90;;;;;;5049904;28;20064;-75
2022/07/11 05:30:18;;;;;;;4.30;1.35;;;15.60;99.90;;;;;;5049837;28;20084;-76
2022/07/11 05:32:44;;;;;;;6.47;1.20;;;15.60;99.90;;;;;;5051044;28;20052;-76
2022/07/11 05:35:09;;;;;;;3.40;1.35;;;15.60;99.90;;;;;;5051274;28;20106;-77
2022/07/11 05:37:35;;;;;;;4.70;1.40;;;15.60;99.90;;;;;;5033384;28;20144;-77
2022/07/11 05:40:01;;;;;;;6.65;1.30;;;15.70;99.90;;;;;;5050941;28;20792;-77
2022/07/11 05:42:28;;;;;;;4.13;1.38;;;15.70;99.90;;;;;;5051255;28;20127;-75
2022/07/11 05:44:54;;;;;;;3.63;1.25;;;15.70;99.90;;;;;;5050684;28;20052;-77
2022/07/11 05:47:20;;;;;;;4.60;1.10;;;15.70;99.90;;;;;;5050706;28;20044;-76
2022/07/11 05:49:45;;;;;;;6.05;1.92;;;15.70;99.90;;;;;;5051101;28;20056;-76
2022/07/11 05:52:11;;;;;;;3.53;0.90;;;15.70;99.90;;;;;;5050873;28;20045;-76
2022/07/11 05:54:37;;;;;;;7.22;1.33;;;15.80;99.90;;;;;;5051995;28;20048;-74
2022/07/11 05:57:02;;;;;;;3.50;0.98;;;15.80;99.90;;;;;;5049719;28;20136;-76
2022/07/11 05:59:29;;;;;;;4.10;0.90;;;15.80;99.90;;;;;;5051174;28;20171;-76
2022/07/11 06:01:55;;;;;;;2.47;1.30;;;15.90;99.90;;;;;;5050882;28;20041;-75
2022/07/11 06:04:21;;;;;;;3.92;1.13;;;16.00;99.90;;;;;;5050473;28;20045;-74
2022/07/11 06:06:47;;;;;;;3.78;0.90;;;15.90;99.90;;;;;;5050269;28;20064;-75
2022/07/11 06:09:13;;;;;;;3.75;1.13;;;16.10;99.90;;;;;;5050649;28;20045;-76
2022/07/11 06:11:38;;;;;;;3.53;0.90;;;15.90;99.90;;;;;;5050912;28;20143;-77
2022/07/11 06:14:05;;;;;;;5.20;0.90;;;15.90;99.90;;;;;;5070801;28;20182;-76
2022/07/11 06:16:31;;;;;;;2.88;0.88;;;16.00;99.90;;;;;;5068755;28;20836;-76
2022/07/11 06:18:58;;;;;;;3.63;0.93;;;16.20;99.90;;;;;;5069812;28;20110;-77
2022/07/11 06:21:24;;;;;;;2.75;0.77;;;16.00;99.90;;;;;;5069487;28;20055;-77
2022/07/11 06:23:50;;;;;;;3.92;0.80;;;16.10;99.90;;;;;;5065917;28;20045;-76
2022/07/11 06:26:16;;;;;;;1.75;0.60;;;16.00;99.90;;;;;;5051132;28;20044;-77
2022/07/11 06:28:42;;;;;;;2.45;0.75;;;16.30;99.90;;;;;;5048851;28;20747;-76
2022/07/11 06:31:08;;;;;;;1.67;0.63;;;16.10;99.90;;;;;;5049082;28;20098;-78
2022/07/11 06:33:37;;;;;;;1.38;0.68;;;16.10;99.90;;;;;;5049915;28;20033;-76
2022/07/11 06:36:03;;;;;;;1.52;0.57;;;16.20;99.90;;;;;;5052617;28;20060;-77
2022/07/11 06:38:30;;;;;;;1.92;0.70;;;16.20;99.90;;;;;;5043244;28;20116;-78
2022/07/11 06:40:56;;;;;;;1.10;0.40;;;16.20;99.90;;;;;;5028834;28;20660;-75
2022/07/11 06:43:22;;;;;;;1.88;0.57;;;16.20;99.90;;;;;;5030238;28;20399;-74
2022/07/11 06:45:47;;;;;;;1.58;0.43;;;16.30;99.90;;;;;;5035542;28;20040;-75
2022/07/11 06:48:14;;;;;;;1.20;0.50;;;16.30;99.90;;;;;;5069850;28;20453;-76
2022/07/11 06:50:40;;;;;;;2.33;0.38;;;16.40;99.90;;;;;;5068935;28;20048;-76
2022/07/11 06:53:06;;;;;;;1.25;0.45;;;16.40;99.90;;;;;;5069396;28;20514;-76
2022/07/11 06:55:32;;;;;;;3.00;0.45;;;16.50;99.90;;;;;;5069905;28;20044;-77
2022/07/11 06:57:59;;;;;;;3.05;0.43;;;16.50;99.90;;;;;;5067263;28;20058;-76
2022/07/11 07:00:24;;;;;;;1.52;0.50;;;16.50;99.90;;;;;;5044873;28;20060;-75
2022/07/11 07:02:50;;;;;;;6.85;1.08;;;16.50;99.90;;;;;;5050036;28;20061;-78
2022/07/11 07:05:16;;;;;;;1.95;0.63;;;16.50;99.90;;;;;;5025390;28;20059;-75
2022/07/11 07:07:41;;;;;;;2.40;0.50;;;16.60;99.90;;;;;;5059412;28;20052;-80
2022/07/11 07:10:08;;;;;;;2.70;0.52;;;16.60;99.90;;;;;;5051495;28;20121;-77
2022/07/11 07:12:38;;;;;;;4.97;0.70;;;16.50;99.90;;;;;;5040724;28;20058;-76
2022/07/11 07:15:04;;;;;;;5.13;1.33;;;16.60;99.90;;;;;;5049710;28;20395;-78
2022/07/11 07:17:31;;;;;;;2.83;0.70;;;16.60;99.90;;;;;;5048224;28;20514;-77
2022/07/11 07:19:56;;;;;;;1.05;0.57;;;16.50;99.90;;;;;;5043794;28;20098;-77
2022/07/11 07:22:22;;;;;;;2.40;0.80;;;16.60;99.90;;;;;;5046312;28;20049;-81
2022/07/11 07:24:48;;;;;;;9.10;2.22;;;16.60;99.90;;;;;;5047568;28;20044;-75
2022/07/11 07:27:14;;;;;;;3.33;1.00;;;16.90;99.90;;;;;;5056172;28;20114;-78
2022/07/11 07:29:40;;;;;;;4.63;1.00;;;16.80;99.90;;;;;;5067330;28;20056;-76
2022/07/11 07:32:06;;;;;;;2.25;1.00;;;16.80;99.90;;;;;;5047020;28;20503;-76
2022/07/11 07:34:32;;;;;;;6.13;0.73;;;16.90;99.90;;;;;;5047817;28;20087;-75
2022/07/11 07:36:59;;;;;;;3.95;0.77;;;17.00;99.90;;;;;;5048348;28;20049;-79
2022/07/11 07:39:35;;;;;;;2.45;0.82;;;17.00;99.90;;;;;;5049277;28;20483;-78
2022/07/11 07:42:01;;;;;;;1.38;0.65;;;17.20;99.90;;;;;;5050486;28;20142;-79
2022/07/11 07:44:27;;;;;;;1.73;0.57;;;17.30;99.90;;;;;;5068527;28;20429;-77
2022/07/11 07:46:52;;;;;;;2.30;0.77;;;17.40;99.90;;;;;;5066022;28;20045;-80
2022/07/11 07:49:18;;;;;;;2.58;0.68;;;17.60;99.90;;;;;;5069210;28;20091;-77
2022/07/11 07:51:44;;;;;;;2.85;0.80;;;17.70;99.90;;;;;;5069126;28;20403;-79
2022/07/11 07:54:10;;;;;;;12.60;0.93;;;17.70;99.90;;;;;;5069195;28;20076;-78
2022/07/11 07:56:38;;;;;;;2.67;0.70;;;17.70;99.90;;;;;;5067207;28;20041;-77
2022/07/11 07:59:04;;;;;;;3.08;0.40;;;17.60;99.90;;;;;;5068687;28;20041;-80
2022/07/11 08:01:36;;;;;;;1.83;0.50;;;17.50;99.90;;;;;;5049913;28;20106;-81
2022/07/11 08:04:07;;;;;;;0.85;0.50;;;17.40;99.90;;;;;;5063164;28;20048;-76
2022/07/11 08:06:34;;;;;;;0.93;0.40;;;17.50;99.90;;;;;;5051844;28;20049;-76
2022/07/11 08:09:01;;;;;;;2.55;0.35;;;17.50;99.90;;;;;;5051169;28;20408;-75
2022/07/11 08:11:28;;;;;;;1.15;0.28;;;17.60;99.90;;;;;;5051874;28;20044;-75
2022/07/11 08:13:54;;;;;;;0.60;0.20;;;17.70;99.90;;;;;;5052020;28;20047;-80
2022/07/11 08:16:20;;;;;;;0.85;0.30;;;17.90;99.90;;;;;;5052200;28;20051;-75
2022/07/11 08:18:47;;;;;;;1.25;0.30;;;18.20;99.90;;;;;;5056902;28;20117;-74
2022/07/11 08:21:13;;;;;;;0.68;0.30;;;18.30;99.90;;;;;;5055251;28;20041;-77
2022/07/11 08:23:39;;;;;;;1.20;0.40;;;18.30;99.90;;;;;;5069767;28;20044;-77
2022/07/11 08:26:05;;;;;;;1.00;0.28;;;18.30;99.90;;;;;;5051342;28;20055;-81
2022/07/11 08:28:30;;;;;;;1.65;0.30;;;18.40;99.90;;;;;;5051868;28;20044;-81
2022/07/11 08:30:56;;;;;;;1.60;0.40;;;18.30;99.90;;;;;;5051564;28;20165;-79
2022/07/11 08:33:22;;;;;;;2.28;0.40;;;18.30;99.90;;;;;;5067779;28;20033;-77
2022/07/11 08:35:47;;;;;;;0.50;0.30;;;18.30;99.90;;;;;;5072207;28;20040;-77
2022/07/11 08:38:13;;;;;;;1.75;0.40;;;18.30;99.90;;;;;;5071815;28;20052;-77
2022/07/11 08:40:42;;;;;;;1.23;0.30;;;18.50;99.90;;;;;;5071306;28;20059;-80
2022/07/11 08:43:15;;;;;;;3.22;0.30;;;18.60;99.90;;;;;;5071870;28;20502;-77
2022/07/11 08:45:41;;;;;;;1.30;0.30;;;18.50;99.90;;;;;;5055374;28;20550;-78
2022/07/11 08:48:09;;;;;;;1.73;0.30;;;18.50;99.90;;;;;;5050596;28;20063;-78
2022/07/11 08:50:35;;;;;;;0.70;0.20;;;18.40;99.90;;;;;;5051442;28;20052;-78
2022/07/11 08:53:03;;;;;;;3.53;0.30;;;18.60;99.90;;;;;;5055436;28;20520;-77
2022/07/11 08:55:29;;;;;;;0.28;0.17;;;18.70;99.90;;;;;;5070921;28;20044;-79
2022/07/11 08:57:54;;;;;;;0.10;0.10;;;18.70;99.90;;;;;;5071434;28;20051;-79
2022/07/11 09:00:21;;;;;;;0.73;0.20;;;18.70;99.90;;;;;;5071415;28;20407;-78
2022/07/11 09:02:49;;;;;;;0.38;0.20;;;18.70;99.90;;;;;;5070974;28;20052;-78
2022/07/11 09:05:15;;;;;;;3.88;0.40;;;18.60;99.90;;;;;;5071500;28;20033;-79
2022/07/11 09:07:47;;;;;;;0.95;0.20;;;18.70;99.90;;;;;;5071244;28;20098;-78
2022/07/11 09:10:14;;;;;;;0.50;0.20;;;18.70;99.90;;;;;;5070550;28;20048;-76
2022/07/11 09:13:00;;;;;;;1.40;0.20;;;18.60;99.90;;;;;;5071343;28;20123;-76
2022/07/11 09:15:37;;;;;;;2.88;0.63;;;18.50;99.90;;;;;;5070873;28;20048;-75
2022/07/11 09:18:05;;;;;;;0.63;0.20;;;18.60;99.90;;;;;;5071027;28;20483;-78
2022/07/11 09:26:32;;;;;;;0.75;0.20;;;18.60;99.90;;;;;;5063250;28;20056;-80
2022/07/11 09:29:03;;;;;;;0.70;0.20;;;18.60;99.90;;;;;;5049960;28;20045;-75
2022/07/11 09:31:31;;;;;;;1.85;0.30;;;18.60;99.90;;;;;;5062339;28;20507;-78
2022/07/11 09:34:10;;;;;;;2.40;0.20;;;18.80;99.90;;;;;;5051037;28;20399;-80
2022/07/11 09:36:39;;;;;;;1.75;0.20;;;18.70;99.90;;;;;;5041837;28;20047;-80
2022/07/11 09:39:07;;;;;;;2.25;0.13;;;18.70;99.90;;;;;;5067787;28;20540;-80
2022/07/11 09:41:34;;;;;;;0.30;0.10;;;18.80;99.90;;;;;;5055672;28;20051;-78
2022/07/11 09:44:22;;;;;;;0.40;0.10;;;18.80;99.90;;;;;;5050828;28;20503;-78
2022/07/11 09:46:50;;;;;;;0.35;0.10;;;19.10;99.90;;;;;;5050283;28;20053;-83
2022/07/11 09:49:29;;;;;;;2.65;0.10;;;18.80;99.90;;;;;;5050552;28;20144;-82
2022/07/11 09:51:56;;;;;;;1.83;0.20;;;18.80;99.90;;;;;;5058579;28;20048;-76
2022/07/11 09:54:22;;;;;;;1.25;0.20;;;18.80;99.90;;;;;;5069280;28;20481;-78
2022/07/11 09:56:51;;;;;;;0.05;0.05;;;18.90;99.90;;;;;;5070636;28;20040;-82
2022/07/11 09:59:17;;;;;;;1.75;0.20;;;18.60;99.90;;;;;;5058327;28;20579;-79
2022/07/11 10:01:44;;;;;;;3.78;0.30;;;18.60;99.90;;;;;;5049960;28;20059;-81
2022/07/11 10:04:10;;;;;;;2.47;0.38;;;18.60;99.90;;;;;;5050420;28;20037;-81
2022/07/11 10:06:37;;;;;;;1.08;0.20;;;18.50;99.90;;;;;;5050452;28;20057;-79
2022/07/11 10:09:05;;;;;;;2.55;0.20;;;18.60;99.90;;;;;;5049516;28;20048;-79
2022/07/11 10:11:32;;;;;;;1.23;0.20;;;18.70;99.90;;;;;;5048932;28;20098;-76
2022/07/11 10:14:03;;;;;;;0.80;0.20;;;18.40;99.90;;;;;;5049239;28;20057;-79
2022/07/11 10:16:35;;;;;;;1.73;0.30;;;18.60;99.90;;;;;;5044389;28;20063;-81
2022/07/11 10:19:26;;;;;;;1.33;0.28;;;18.50;99.90;;;;;;5047758;28;20456;-78
2022/07/11 10:22:17;;;;;;;2.50;0.30;;;18.60;99.90;;;;;;5042195;28;20529;-79
2022/07/11 10:24:59;;;;;;;1.75;0.20;;;18.70;99.90;;;;;;5048686;28;20045;-80
2022/07/11 10:27:41;;;;;;;1.33;0.30;;;18.80;99.90;;;;;;5048287;28;20064;-80
2022/07/11 10:30:07;;;;;;;0.60;0.10;;;19.00;99.90;;;;;;5048639;28;20049;-77
2022/07/11 10:33:00;;;;;;;0.75;0.20;;;19.10;99.90;;;;;;5055074;28;20035;-79
2022/07/11 10:35:29;;;;;;;4.13;0.30;;;19.20;99.90;;;;;;5047736;28;20053;-79
2022/07/11 10:37:55;;;;;;;1.30;0.20;;;19.30;99.90;;;;;;5048246;28;20175;-76
2022/07/11 10:40:45;;;;;;;0.57;0.20;;;19.40;99.90;;;;;;5050174;28;20116;-81
2022/07/11 10:43:39;;;;;;;3.03;0.25;;;19.40;99.90;;;;;;5038289;28;20128;-80
2022/07/11 10:46:09;;;;;;;1.45;0.20;;;19.40;99.90;;;;;;5065047;28;20181;-78
2022/07/11 10:48:50;;;;;;;0.68;0.20;;;19.40;99.90;;;;;;5069956;28;20075;-78
2022/07/11 10:51:28;;;;;;;2.78;0.35;;;19.60;99.90;;;;;;5070458;28;20162;-75
2022/07/11 10:53:56;;;;;;;1.38;0.22;;;19.60;99.90;;;;;;5050546;28;20045;-79
2022/07/11 10:56:45;;;;;;;0.20;0.20;;;19.60;99.90;;;;;;5050073;28;20048;-78
2022/07/11 10:59:16;;;;;;;2.53;0.55;;;19.60;99.90;;;;;;5050082;28;20501;-78
2022/07/11 11:02:04;;;;;;;0.40;0.20;;;19.80;99.90;;;;;;5049698;28;20148;-78
2022/07/11 11:04:46;;;;;;;0.40;0.30;;;19.90;99.90;;;;;;5047941;28;20051;-80
2022/07/11 11:07:29;;;;;;;0.60;0.32;;;19.80;99.90;;;;;;5049845;28;20052;-80
2022/07/11 11:09:55;;;;;;;0.63;0.20;;;19.90;99.90;;;;;;5048054;28;20033;-78
2022/07/11 11:12:40;;;;;;;0.68;0.30;;;19.90;99.90;;;;;;5050004;28;20075;-79
2022/07/11 11:15:32;;;;;;;6.03;0.30;;;19.90;99.90;;;;;;5045253;28;20123;-80
2022/07/11 11:17:57;;;;;;;0.30;0.20;;;19.90;99.90;;;;;;5027250;28;20065;-78
2022/07/11 11:20:32;;;;;;;1.50;0.15;;;19.80;99.90;;;;;;5024409;28;20071;-78
2022/07/11 11:23:22;;;;;;;3.25;0.30;;;19.90;99.90;;;;;;5006777;28;20081;-78
2022/07/11 11:25:51;;;;;;;0.52;0.20;;;20.00;99.90;;;;;;5012294;28;20054;-80
2022/07/11 11:28:21;;;;;;;0.98;0.30;;;20.10;99.90;;;;;;5009899;28;20140;-77
2022/07/11 11:30:54;;;;;;;0.90;0.25;;;19.90;99.90;;;;;;5026378;28;20084;-78
2022/07/11 11:33:20;;;;;;;2.33;0.30;;;20.00;99.90;;;;;;5026995;28;20045;-80
2022/07/11 11:35:57;;;;;;;2.25;0.30;;;20.10;99.90;;;;;;5026441;28;20598;-81
2022/07/11 11:38:23;;;;;;;0.68;0.30;;;20.10;99.90;;;;;;5013203;28;20133;-79
2022/07/11 11:40:49;;;;;;;1.95;0.30;;;20.00;99.90;;;;;;5010709;28;20042;-78
2022/07/11 11:43:19;;;;;;;3.92;0.35;;;20.00;99.90;;;;;;5011054;28;20050;-78
2022/07/11 11:45:52;;;;;;;2.08;0.40;;;20.00;99.90;;;;;;4995813;28;20046;-78
2022/07/11 11:48:27;;;;;;;0.98;0.40;;;20.00;99.90;;;;;;4994675;28;20077;-79
2022/07/11 11:51:01;;;;;;;1.08;0.22;;;19.90;99.90;;;;;;5010335;28;20156;-78
2022/07/11 11:53:26;;;;;;;0.63;0.20;;;20.10;99.90;;;;;;5010362;28;20060;-79
2022/07/11 11:55:52;;;;;;;2.08;0.40;;;20.20;99.90;;;;;;5048174;28;20052;-79
2022/07/11 11:58:17;;;;;;;0.73;0.22;;;20.20;99.90;;;;;;5051735;28;20480;-78
2022/07/11 12:00:54;;;;;;;1.77;0.50;;;20.30;99.90;;;;;;5052696;28;20053;-80
2022/07/11 12:03:20;;;;;;;1.00;0.70;;;20.20;99.90;;;;;;5034345;28;20053;-80
2022/07/11 12:05:54;;;;;;;1.42;0.30;;;20.30;99.90;;;;;;5053106;28;20055;-82
2022/07/11 12:08:28;;;;;;;0.82;0.30;;;20.20;99.90;;;;;;5052913;28;20045;-76
2022/07/11 12:10:54;;;;;;;1.50;0.30;;;20.20;99.90;;;;;;5052386;28;20159;-78
2022/07/11 12:13:20;;;;;;;0.93;0.38;;;20.30;99.90;;;;;;5051992;28;20067;-81
2022/07/11 12:18:36;;;;;;;0.43;0.28;;;20.30;99.90;;;;;;5052243;28;20052;-80
2022/07/11 12:21:12;;;;;;;1.38;0.40;;;20.30;99.90;;;;;;5051116;28;20586;-84
2022/07/11 12:23:39;;;;;;;2.60;0.30;;;20.30;99.90;;;;;;5054836;28;20040;-81
2022/07/11 12:26:05;;;;;;;1.30;0.30;;;20.30;99.90;;;;;;5049526;28;20488;-77
2022/07/11 12:28:34;;;;;;;2.65;0.63;;;20.40;99.90;;;;;;5050592;28;20044;-78
2022/07/11 12:31:01;;;;;;;1.70;0.40;;;20.40;99.90;;;;;;5050338;28;20072;-75
2022/07/11 12:33:27;;;;;;;0.77;0.40;;;20.20;99.90;;;;;;5054587;28;20080;-78
2022/07/11 12:36:00;;;;;;;0.32;0.30;;;20.40;99.90;;;;;;5050023;28;20053;-79
2022/07/11 12:38:51;;;;;;;2.80;0.30;;;20.40;99.90;;;;;;5050182;28;20491;-75
2022/07/11 12:41:17;;;;;;;2.38;0.30;;;20.50;99.90;;;;;;5051238;28;20295;-78
2022/07/11 12:46:31;;;;;;;2.42;0.30;;;20.30;99.90;;;;;;5048917;28;20049;-75
2022/07/11 12:49:01;;;;;;;1.40;0.60;;;20.30;99.90;;;;;;5050133;28;20496;-77
2022/07/11 12:51:28;;;;;;;3.20;1.20;;;20.30;99.90;;;;;;5049254;28;20048;-75
2022/07/11 12:54:05;;;;;;;1.83;0.50;;;20.40;99.90;;;;;;5050874;28;20045;-78
2022/07/11 12:56:31;;;;;;;3.53;0.50;;;20.40;99.90;;;;;;5051276;28;20438;-80
2022/07/11 12:58:58;;;;;;;0.98;0.40;;;20.50;99.90;;;;;;5051478;28;20036;-77
2022/07/11 13:01:24;;;;;;;1.42;0.60;;;20.40;99.90;;;;;;5051787;28;20057;-77